sensor_id;sensor_type;location;lat;lon;timestamp;pressure;altitude;pressure_sealevel;temperature;humidity
80149;BME280;69473;42.426;26.644;2024-01-11T00:00:21;100154.06;;;-6.11;67.46
80149;BME280;69473;42.426;26.644;2024-01-11T00:02:46;100150.31;;;-6.16;68.27
80149;BME280;69473;42.426;26.644;2024-01-11T00:05:12;100157.88;;;-6.16;68.67
80149;BME280;69473;42.426;26.644;2024-01-11T00:07:37;100161.41;;;-6.24;69.01
80149;BME280;69473;42.426;26.644;2024-01-11T00:10:03;100158.38;;;-6.20;68.92
80149;BME280;69473;42.426;26.644;2024-01-11T00:12:29;100158.13;;;-6.13;69.39
80149;BME280;69473;42.426;26.644;2024-01-11T00:14:55;100150.56;;;-6.13;68.90
80149;BME280;69473;42.426;26.644;2024-01-11T00:17:20;100155.59;;;-6.13;68.89
80149;BME280;69473;42.426;26.644;2024-01-11T00:19:46;100145.25;;;-6.16;68.87
80149;BME280;69473;42.426;26.644;2024-01-11T00:22:11;100142.97;;;-6.23;68.93
80149;BME280;69473;42.426;26.644;2024-01-11T00:24:37;100148.03;;;-6.23;69.36
80149;BME280;69473;42.426;26.644;2024-01-11T00:27:02;100145.13;;;-6.28;69.56
80149;BME280;69473;42.426;26.644;2024-01-11T00:29:28;100143.00;;;-6.34;69.15
80149;BME280;69473;42.426;26.644;2024-01-11T00:31:54;100142.47;;;-6.30;69.20
80149;BME280;69473;42.426;26.644;2024-01-11T00:34:21;100144.75;;;-6.33;69.44
80149;BME280;69473;42.426;26.644;2024-01-11T00:36:47;100145.00;;;-6.30;69.62
80149;BME280;69473;42.426;26.644;2024-01-11T00:39:13;100143.75;;;-6.35;69.91
80149;BME280;69473;42.426;26.644;2024-01-11T00:41:38;100137.44;;;-6.30;68.46
80149;BME280;69473;42.426;26.644;2024-01-11T00:44:04;100139.97;;;-6.19;66.38
80149;BME280;69473;42.426;26.644;2024-01-11T00:46:29;100137.66;;;-6.06;64.96
80149;BME280;69473;42.426;26.644;2024-01-11T00:48:55;100131.84;;;-5.95;63.14
80149;BME280;69473;42.426;26.644;2024-01-11T00:51:21;100124.84;;;-5.87;62.06
80149;BME280;69473;42.426;26.644;2024-01-11T00:53:46;100130.50;;;-5.80;61.58
80149;BME280;69473;42.426;26.644;2024-01-11T00:56:19;100128.22;;;-5.76;60.44
80149;BME280;69473;42.426;26.644;2024-01-11T00:58:45;100130.88;;;-5.75;60.54
80149;BME280;69473;42.426;26.644;2024-01-11T01:01:11;100135.69;;;-5.78;61.23
80149;BME280;69473;42.426;26.644;2024-01-11T01:03:38;100131.25;;;-5.81;61.49
80149;BME280;69473;42.426;26.644;2024-01-11T01:06:04;100128.25;;;-5.87;62.14
80149;BME280;69473;42.426;26.644;2024-01-11T01:08:30;100126.34;;;-5.89;61.54
80149;BME280;69473;42.426;26.644;2024-01-11T01:10:56;100125.72;;;-5.87;61.34
80149;BME280;69473;42.426;26.644;2024-01-11T01:13:22;100124.84;;;-5.87;60.23
80149;BME280;69473;42.426;26.644;2024-01-11T01:15:47;100117.63;;;-5.83;60.36
80149;BME280;69473;42.426;26.644;2024-01-11T01:18:13;100116.13;;;-5.81;60.50
80149;BME280;69473;42.426;26.644;2024-01-11T01:20:39;100115.88;;;-5.84;59.95
80149;BME280;69473;42.426;26.644;2024-01-11T01:23:05;100115.88;;;-5.84;59.76
80149;BME280;69473;42.426;26.644;2024-01-11T01:25:31;100106.41;;;-5.86;60.47
80149;BME280;69473;42.426;26.644;2024-01-11T01:27:58;100098.72;;;-5.88;60.90
80149;BME280;69473;42.426;26.644;2024-01-11T01:30:24;100094.50;;;-5.99;62.31
80149;BME280;69473;42.426;26.644;2024-01-11T01:32:50;100101.47;;;-6.07;63.30
80149;BME280;69473;42.426;26.644;2024-01-11T01:35:15;100097.06;;;-6.09;63.49
80149;BME280;69473;42.426;26.644;2024-01-11T01:37:41;100089.34;;;-6.11;63.71
80149;BME280;69473;42.426;26.644;2024-01-11T01:40:08;100081.91;;;-6.09;64.20
80149;BME280;69473;42.426;26.644;2024-01-11T01:42:34;100073.81;;;-6.05;64.06
80149;BME280;69473;42.426;26.644;2024-01-11T01:44:59;100078.38;;;-6.11;64.24
80149;BME280;69473;42.426;26.644;2024-01-11T01:47:26;100064.78;;;-6.13;64.07
80149;BME280;69473;42.426;26.644;2024-01-11T01:49:53;100065.66;;;-6.13;64.41
80149;BME280;69473;42.426;26.644;2024-01-11T01:52:21;100064.00;;;-6.12;65.09
80149;BME280;69473;42.426;26.644;2024-01-11T01:54:49;100059.47;;;-6.16;65.59
80149;BME280;69473;42.426;26.644;2024-01-11T01:57:16;100064.88;;;-6.12;65.36
80149;BME280;69473;42.426;26.644;2024-01-11T01:59:45;100056.44;;;-6.12;65.53
80149;BME280;69473;42.426;26.644;2024-01-11T02:02:11;100046.59;;;-6.09;65.42
80149;BME280;69473;42.426;26.644;2024-01-11T02:04:37;100049.88;;;-6.10;65.29
80149;BME280;69473;42.426;26.644;2024-01-11T02:07:04;100048.34;;;-6.08;65.45
80149;BME280;69473;42.426;26.644;2024-01-11T02:09:32;100043.03;;;-6.11;65.64
80149;BME280;69473;42.426;26.644;2024-01-11T02:12:00;100043.03;;;-6.11;66.17
80149;BME280;69473;42.426;26.644;2024-01-11T02:14:26;100043.28;;;-6.08;65.29
80149;BME280;69473;42.426;26.644;2024-01-11T02:16:52;100043.78;;;-6.02;65.11
80149;BME280;69473;42.426;26.644;2024-01-11T02:19:19;100040.50;;;-6.01;65.95
80149;BME280;69473;42.426;26.644;2024-01-11T02:21:48;100030.44;;;-6.01;65.50
80149;BME280;69473;42.426;26.644;2024-01-11T02:24:15;100046.06;;;-6.05;65.88
80149;BME280;69473;42.426;26.644;2024-01-11T02:27:03;100041.28;;;-6.12;66.45
80149;BME280;69473;42.426;26.644;2024-01-11T02:29:30;100047.84;;;-6.14;67.14
80149;BME280;69473;42.426;26.644;2024-01-11T02:31:59;100046.09;;;-6.15;67.77
80149;BME280;69473;42.426;26.644;2024-01-11T02:34:27;100043.44;;;-6.07;67.16
80149;BME280;69473;42.426;26.644;2024-01-11T02:36:56;100034.97;;;-6.07;67.34
80149;BME280;69473;42.426;26.644;2024-01-11T02:39:23;100039.53;;;-6.13;68.08
80149;BME280;69473;42.426;26.644;2024-01-11T02:41:51;100027.41;;;-6.17;67.78
80149;BME280;69473;42.426;26.644;2024-01-11T02:44:17;100030.97;;;-6.15;68.09
80149;BME280;69473;42.426;26.644;2024-01-11T02:46:43;100027.91;;;-6.11;68.11
80149;BME280;69473;42.426;26.644;2024-01-11T02:49:09;100029.56;;;-6.12;68.31
80149;BME280;69473;42.426;26.644;2024-01-11T02:51:34;100034.75;;;-6.10;68.36
80149;BME280;69473;42.426;26.644;2024-01-11T02:54:01;100021.84;;;-6.03;67.82
80149;BME280;69473;42.426;26.644;2024-01-11T02:56:26;100017.66;;;-6.02;67.32
80149;BME280;69473;42.426;26.644;2024-01-11T02:58:52;100012.88;;;-5.99;66.92
80149;BME280;69473;42.426;26.644;2024-01-11T03:01:17;100017.66;;;-6.02;67.13
80149;BME280;69473;42.426;26.644;2024-01-11T03:03:43;100013.25;;;-6.05;67.95
80149;BME280;69473;42.426;26.644;2024-01-11T03:06:08;100015.03;;;-6.04;67.90
80149;BME280;69473;42.426;26.644;2024-01-11T03:08:35;100013.75;;;-5.99;66.75
80149;BME280;69473;42.426;26.644;2024-01-11T03:11:00;100012.22;;;-5.97;66.56
80149;BME280;69473;42.426;26.644;2024-01-11T03:13:27;100003.00;;;-5.96;66.65
80149;BME280;69473;42.426;26.644;2024-01-11T03:15:52;100000.38;;;-5.98;67.24
80149;BME280;69473;42.426;26.644;2024-01-11T03:18:18;99993.56;;;-5.99;67.42
80149;BME280;69473;42.426;26.644;2024-01-11T03:20:43;99994.19;;;-6.01;68.32
80149;BME280;69473;42.426;26.644;2024-01-11T03:23:09;99988.50;;;-5.99;68.94
80149;BME280;69473;42.426;26.644;2024-01-11T03:25:34;99997.97;;;-5.96;68.95
80149;BME280;69473;42.426;26.644;2024-01-11T03:28:00;99995.78;;;-5.92;67.94
80149;BME280;69473;42.426;26.644;2024-01-11T03:30:26;99987.00;;;-5.97;67.91
80149;BME280;69473;42.426;26.644;2024-01-11T03:32:51;99988.97;;;-5.93;67.88
80149;BME280;69473;42.426;26.644;2024-01-11T03:35:18;99982.19;;;-5.94;68.54
80149;BME280;69473;42.426;26.644;2024-01-11T03:37:44;99978.66;;;-5.96;68.82
80149;BME280;69473;42.426;26.644;2024-01-11T03:40:10;99977.78;;;-5.96;69.47
80149;BME280;69473;42.426;26.644;2024-01-11T03:42:36;99976.91;;;-5.97;69.53
80149;BME280;69473;42.426;26.644;2024-01-11T03:45:03;99970.84;;;-5.99;69.36
80149;BME280;69473;42.426;26.644;2024-01-11T03:47:28;99974.63;;;-5.94;69.06
80149;BME280;69473;42.426;26.644;2024-01-11T03:49:54;99974.63;;;-5.94;68.37
80149;BME280;69473;42.426;26.644;2024-01-11T03:52:19;99963.66;;;-5.94;67.29
80149;BME280;69473;42.426;26.644;2024-01-11T03:54:45;99964.72;;;-5.91;65.59
80149;BME280;69473;42.426;26.644;2024-01-11T03:57:11;99967.47;;;-5.88;66.30
80149;BME280;69473;42.426;26.644;2024-01-11T03:59:37;99963.53;;;-5.84;66.97
80149;BME280;69473;42.426;26.644;2024-01-11T04:04:37;99964.41;;;-5.84;68.32
80149;BME280;69473;42.426;26.644;2024-01-11T04:07:03;99959.13;;;-5.87;68.13
80149;BME280;69473;42.426;26.644;2024-01-11T04:09:29;99967.25;;;-5.91;68.72
80149;BME280;69473;42.426;26.644;2024-01-11T04:11:54;99957.16;;;-5.91;67.68
80149;BME280;69473;42.426;26.644;2024-01-11T04:14:20;99952.78;;;-5.93;68.76
80149;BME280;69473;42.426;26.644;2024-01-11T04:16:45;99953.41;;;-5.96;68.35
80149;BME280;69473;42.426;26.644;2024-01-11T04:19:11;99950.59;;;-5.89;68.12
80149;BME280;69473;42.426;26.644;2024-01-11T04:21:36;99951.81;;;-5.84;67.36
80149;BME280;69473;42.426;26.644;2024-01-11T04:24:05;99946.50;;;-5.87;68.94
80149;BME280;69473;42.426;26.644;2024-01-11T04:26:32;99947.06;;;-5.91;68.67
80149;BME280;69473;42.426;26.644;2024-01-11T04:28:58;99951.91;;;-5.94;68.91
80149;BME280;69473;42.426;26.644;2024-01-11T04:31:25;99951.31;;;-5.90;69.48
80149;BME280;69473;42.426;26.644;2024-01-11T04:33:51;99946.50;;;-5.87;69.30
80149;BME280;69473;42.426;26.644;2024-01-11T04:36:17;99942.59;;;-5.83;68.78
80149;BME280;69473;42.426;26.644;2024-01-11T04:38:43;99951.03;;;-5.83;69.08
80149;BME280;69473;42.426;26.644;2024-01-11T04:41:13;99948.00;;;-5.78;68.99
80149;BME280;69473;42.426;26.644;2024-01-11T04:43:43;99953.16;;;-5.77;69.01
80149;BME280;69473;42.426;26.644;2024-01-11T04:48:38;99951.00;;;-5.72;68.87
80149;BME280;69473;42.426;26.644;2024-01-11T04:51:04;99955.28;;;-5.71;68.57
80149;BME280;69473;42.426;26.644;2024-01-11T04:53:29;99956.78;;;-5.73;69.14
80149;BME280;69473;42.426;26.644;2024-01-11T04:55:55;99956.78;;;-5.73;69.51
80149;BME280;69473;42.426;26.644;2024-01-11T04:58:21;99952.28;;;-5.77;69.34
80149;BME280;69473;42.426;26.644;2024-01-11T05:00:47;99952.28;;;-5.77;69.23
80149;BME280;69473;42.426;26.644;2024-01-11T05:03:12;99945.75;;;-5.86;69.67
80149;BME280;69473;42.426;26.644;2024-01-11T05:05:38;99941.16;;;-5.80;70.14
80149;BME280;69473;42.426;26.644;2024-01-11T05:08:04;99942.31;;;-5.76;69.90
80149;BME280;69473;42.426;26.644;2024-01-11T05:10:29;99938.13;;;-5.75;70.28
80149;BME280;69473;42.426;26.644;2024-01-11T05:12:55;99933.31;;;-5.72;69.83
80149;BME280;69473;42.426;26.644;2024-01-11T05:15:20;99938.38;;;-5.72;70.74
80149;BME280;69473;42.426;26.644;2024-01-11T05:17:46;99938.38;;;-5.72;70.37
80149;BME280;69473;42.426;26.644;2024-01-11T05:20:11;99938.38;;;-5.72;70.62
80149;BME280;69473;42.426;26.644;2024-01-11T05:22:37;99939.00;;;-5.75;70.83
80149;BME280;69473;42.426;26.644;2024-01-11T05:25:03;99931.31;;;-5.76;70.71
80149;BME280;69473;42.426;26.644;2024-01-11T05:27:28;99930.91;;;-5.71;70.92
80149;BME280;69473;42.426;26.644;2024-01-11T05:29:54;99935.06;;;-5.71;70.58
80149;BME280;69473;42.426;26.644;2024-01-11T05:32:20;99928.28;;;-5.72;71.29
80149;BME280;69473;42.426;26.644;2024-01-11T05:34:45;99936.59;;;-5.73;71.45
80149;BME280;69473;42.426;26.644;2024-01-11T05:37:11;99936.81;;;-5.70;71.47
80149;BME280;69473;42.426;26.644;2024-01-11T05:39:36;99941.00;;;-5.71;71.34
80149;BME280;69473;42.426;26.644;2024-01-11T05:42:02;99944.94;;;-5.74;71.20
80149;BME280;69473;42.426;26.644;2024-01-11T05:44:28;99935.25;;;-5.80;70.67
80149;BME280;69473;42.426;26.644;2024-01-11T05:46:53;99940.44;;;-5.78;70.32
80149;BME280;69473;42.426;26.644;2024-01-11T05:49:19;99932.44;;;-5.73;68.33
80149;BME280;69473;42.426;26.644;2024-01-11T05:51:44;99930.03;;;-5.71;68.68
80149;BME280;69473;42.426;26.644;2024-01-11T05:54:10;99931.66;;;-5.72;69.20
80149;BME280;69473;42.426;26.644;2024-01-11T05:56:35;99932.06;;;-5.77;70.09
80149;BME280;69473;42.426;26.644;2024-01-11T05:59:01;99921.22;;;-5.76;70.43
80149;BME280;69473;42.426;26.644;2024-01-11T06:01:26;99919.69;;;-5.74;70.57
80149;BME280;69473;42.426;26.644;2024-01-11T06:03:52;99919.91;;;-5.71;70.33
80149;BME280;69473;42.426;26.644;2024-01-11T06:06:17;99929.78;;;-5.74;70.92
80149;BME280;69473;42.426;26.644;2024-01-11T06:08:44;99923.22;;;-5.72;70.96
80149;BME280;69473;42.426;26.644;2024-01-11T06:11:09;99928.28;;;-5.72;70.68
80149;BME280;69473;42.426;26.644;2024-01-11T06:13:35;99929.56;;;-5.77;70.86
80149;BME280;69473;42.426;26.644;2024-01-11T06:16:00;99931.78;;;-5.70;70.51
80149;BME280;69473;42.426;26.644;2024-01-11T06:18:26;99924.75;;;-5.74;70.28
80149;BME280;69473;42.426;26.644;2024-01-11T06:20:52;99925.78;;;-5.83;71.10
80149;BME280;69473;42.426;26.644;2024-01-11T06:23:17;99923.81;;;-5.87;71.26
80149;BME280;69473;42.426;26.644;2024-01-11T06:25:44;99932.38;;;-5.85;71.25
80149;BME280;69473;42.426;26.644;2024-01-11T06:28:11;99924.28;;;-5.81;71.08
80149;BME280;69473;42.426;26.644;2024-01-11T06:30:37;99923.47;;;-5.69;70.49
80149;BME280;69473;42.426;26.644;2024-01-11T06:33:03;99922.38;;;-5.61;70.77
80149;BME280;69473;42.426;26.644;2024-01-11T06:35:28;99923.53;;;-5.46;70.13
80149;BME280;69473;42.426;26.644;2024-01-11T06:37:54;99922.47;;;-5.38;69.70
80149;BME280;69473;42.426;26.644;2024-01-11T06:40:19;99915.03;;;-5.24;68.91
80149;BME280;69473;42.426;26.644;2024-01-11T06:42:45;99912.84;;;-5.08;68.03
80149;BME280;69473;42.426;26.644;2024-01-11T06:45:10;99905.88;;;-4.89;67.07
80149;BME280;69473;42.426;26.644;2024-01-11T06:47:36;99909.16;;;-4.66;65.46
80149;BME280;69473;42.426;26.644;2024-01-11T06:50:02;99907.81;;;-4.37;64.79
80149;BME280;69473;42.426;26.644;2024-01-11T06:52:28;99905.44;;;-3.24;62.71
80149;BME280;69473;42.426;26.644;2024-01-11T06:54:54;99905.31;;;-2.21;59.45
80149;BME280;69473;42.426;26.644;2024-01-11T06:57:19;99899.25;;;-1.38;55.40
80149;BME280;69473;42.426;26.644;2024-01-11T06:59:45;99893.31;;;-0.80;52.98
80149;BME280;69473;42.426;26.644;2024-01-11T07:02:11;99882.34;;;-0.33;51.22
80149;BME280;69473;42.426;26.644;2024-01-11T07:04:38;99880.50;;;0.12;49.78
80149;BME280;69473;42.426;26.644;2024-01-11T07:07:03;99879.25;;;0.04;46.90
80149;BME280;69473;42.426;26.644;2024-01-11T07:09:29;99881.72;;;-0.60;48.15
80149;BME280;69473;42.426;26.644;2024-01-11T07:11:55;99887.94;;;-0.24;46.99
80149;BME280;69473;42.426;26.644;2024-01-11T07:14:21;99874.97;;;0.19;47.22
80149;BME280;69473;42.426;26.644;2024-01-11T07:16:46;99878.13;;;0.48;45.48
80149;BME280;69473;42.426;26.644;2024-01-11T07:19:12;99880.03;;;0.52;46.44
80149;BME280;69473;42.426;26.644;2024-01-11T07:21:37;99882.59;;;0.36;45.76
80149;BME280;69473;42.426;26.644;2024-01-11T07:24:03;99876.31;;;0.13;46.60
80149;BME280;69473;42.426;26.644;2024-01-11T07:26:29;99874.22;;;-0.42;48.39
80149;BME280;69473;42.426;26.644;2024-01-11T07:28:54;99881.81;;;-0.58;48.74
80149;BME280;69473;42.426;26.644;2024-01-11T07:31:20;99867.44;;;0.06;48.34
80149;BME280;69473;42.426;26.644;2024-01-11T07:33:46;99877.09;;;0.44;47.69
80149;BME280;69473;42.426;26.644;2024-01-11T07:36:11;99868.69;;;3.26;43.53
80149;BME280;69473;42.426;26.644;2024-01-11T07:38:37;99845.19;;;5.83;38.73
80149;BME280;69473;42.426;26.644;2024-01-11T07:41:03;99846.59;;;6.95;37.23
80149;BME280;69473;42.426;26.644;2024-01-11T07:43:28;99835.41;;;8.97;33.83
80149;BME280;69473;42.426;26.644;2024-01-11T07:45:55;99832.09;;;9.06;32.19
80149;BME280;69473;42.426;26.644;2024-01-11T07:48:23;99842.94;;;8.38;30.37
80149;BME280;69473;42.426;26.644;2024-01-11T07:50:49;99837.91;;;8.44;32.60
80149;BME280;69473;42.426;26.644;2024-01-11T07:53:15;99834.72;;;8.59;30.98
80149;BME280;69473;42.426;26.644;2024-01-11T07:55:41;99830.78;;;7.92;31.23
80149;BME280;69473;42.426;26.644;2024-01-11T07:58:07;99825.69;;;9.37;31.60
80149;BME280;69473;42.426;26.644;2024-01-11T08:00:32;99825.34;;;10.37;30.15
80149;BME280;69473;42.426;26.644;2024-01-11T08:02:59;99820.88;;;13.28;27.35
80149;BME280;69473;42.426;26.644;2024-01-11T08:05:25;99819.59;;;14.63;24.04
80149;BME280;69473;42.426;26.644;2024-01-11T08:07:51;99817.09;;;15.57;22.49
80149;BME280;69473;42.426;26.644;2024-01-11T08:10:17;99806.94;;;15.26;22.19
80149;BME280;69473;42.426;26.644;2024-01-11T08:12:43;99810.28;;;15.40;22.12
80149;BME280;69473;42.426;26.644;2024-01-11T08:15:09;99815.69;;;16.73;20.78
80149;BME280;69473;42.426;26.644;2024-01-11T08:17:46;99809.94;;;15.80;22.12
80149;BME280;69473;42.426;26.644;2024-01-11T08:20:12;99811.53;;;16.58;22.33
80149;BME280;69473;42.426;26.644;2024-01-11T08:22:41;99791.25;;;17.80;20.74
80149;BME280;69473;42.426;26.644;2024-01-11T08:25:09;99795.53;;;17.36;20.42
80149;BME280;69473;42.426;26.644;2024-01-11T08:27:35;99792.41;;;17.14;20.57
80149;BME280;69473;42.426;26.644;2024-01-11T08:30:01;99797.72;;;17.09;19.90
80149;BME280;69473;42.426;26.644;2024-01-11T08:32:27;99791.94;;;19.07;19.17
80149;BME280;69473;42.426;26.644;2024-01-11T08:34:53;99788.75;;;18.15;18.83
80149;BME280;69473;42.426;26.644;2024-01-11T08:37:19;99785.50;;;19.53;18.86
80149;BME280;69473;42.426;26.644;2024-01-11T08:39:45;99784.50;;;19.90;18.63
80149;BME280;69473;42.426;26.644;2024-01-11T08:42:12;99787.06;;;20.23;17.85
80149;BME280;69473;42.426;26.644;2024-01-11T08:44:41;99778.41;;;20.77;16.78
80149;BME280;69473;42.426;26.644;2024-01-11T08:47:07;99781.72;;;20.26;17.28
80149;BME280;69473;42.426;26.644;2024-01-11T08:49:32;99774.47;;;21.43;16.49
80149;BME280;69473;42.426;26.644;2024-01-11T08:51:58;99781.31;;;20.68;17.18
80149;BME280;69473;42.426;26.644;2024-01-11T08:54:23;99770.25;;;22.57;16.13
80149;BME280;69473;42.426;26.644;2024-01-11T08:56:49;99761.88;;;22.24;16.56
80149;BME280;69473;42.426;26.644;2024-01-11T08:59:14;99756.31;;;22.31;15.83
80149;BME280;69473;42.426;26.644;2024-01-11T09:01:40;99748.69;;;22.90;15.65
80149;BME280;69473;42.426;26.644;2024-01-11T09:04:05;99746.28;;;22.40;16.05
80149;BME280;69473;42.426;26.644;2024-01-11T09:06:31;99738.56;;;23.42;14.97
80149;BME280;69473;42.426;26.644;2024-01-11T09:08:57;99742.88;;;22.81;15.59
80149;BME280;69473;42.426;26.644;2024-01-11T09:11:23;99731.97;;;22.23;16.04
80149;BME280;69473;42.426;26.644;2024-01-11T09:13:48;99727.69;;;22.43;15.51
80149;BME280;69473;42.426;26.644;2024-01-11T09:16:15;99718.47;;;23.17;15.15
80149;BME280;69473;42.426;26.644;2024-01-11T09:18:43;99705.66;;;22.44;15.27
80149;BME280;69473;42.426;26.644;2024-01-11T09:21:08;99693.13;;;24.49;14.55
80149;BME280;69473;42.426;26.644;2024-01-11T09:23:35;99692.16;;;25.54;14.21
80149;BME280;69473;42.426;26.644;2024-01-11T09:26:00;99682.00;;;24.94;13.70
80149;BME280;69473;42.426;26.644;2024-01-11T09:28:26;99682.47;;;23.74;14.51
80149;BME280;69473;42.426;26.644;2024-01-11T09:30:51;99676.84;;;24.56;14.92
80149;BME280;69473;42.426;26.644;2024-01-11T09:33:17;99668.09;;;24.89;14.82
80149;BME280;69473;42.426;26.644;2024-01-11T09:35:42;99663.81;;;25.54;13.64
80149;BME280;69473;42.426;26.644;2024-01-11T09:38:08;99655.94;;;24.85;13.06
80149;BME280;69473;42.426;26.644;2024-01-11T09:40:33;99655.63;;;24.56;13.36
80149;BME280;69473;42.426;26.644;2024-01-11T09:43:03;99643.63;;;25.19;12.95
80149;BME280;69473;42.426;26.644;2024-01-11T09:45:30;99638.00;;;25.25;12.85
80149;BME280;69473;42.426;26.644;2024-01-11T09:47:55;99643.91;;;22.68;14.11
80149;BME280;69473;42.426;26.644;2024-01-11T09:50:22;99632.34;;;24.27;13.87
80149;BME280;69473;42.426;26.644;2024-01-11T09:52:50;99638.53;;;23.70;14.21
80149;BME280;69473;42.426;26.644;2024-01-11T09:55:19;99628.38;;;24.72;13.73
80149;BME280;69473;42.426;26.644;2024-01-11T09:57:47;99614.75;;;24.26;13.17
80149;BME280;69473;42.426;26.644;2024-01-11T10:00:16;99618.41;;;23.87;13.81
80149;BME280;69473;42.426;26.644;2024-01-11T10:02:45;99618.97;;;22.96;14.12
80149;BME280;69473;42.426;26.644;2024-01-11T10:05:12;99613.16;;;23.66;14.01
80149;BME280;69473;42.426;26.644;2024-01-11T10:07:40;99611.88;;;23.94;13.77
80149;BME280;69473;42.426;26.644;2024-01-11T10:10:06;99606.09;;;20.31;16.15
80149;BME280;69473;42.426;26.644;2024-01-11T10:12:37;99614.13;;;14.95;20.91
80149;BME280;69473;42.426;26.644;2024-01-11T10:15:12;99611.88;;;13.00;23.19
80149;BME280;69473;42.426;26.644;2024-01-11T10:17:42;99623.09;;;11.60;26.16
80149;BME280;69473;42.426;26.644;2024-01-11T10:20:10;99613.19;;;10.79;25.80
80149;BME280;69473;42.426;26.644;2024-01-11T10:22:36;99616.78;;;9.92;28.19
80149;BME280;69473;42.426;26.644;2024-01-11T10:25:12;99608.56;;;9.49;29.25
80149;BME280;69473;42.426;26.644;2024-01-11T10:27:43;99611.88;;;9.36;28.61
80149;BME280;69473;42.426;26.644;2024-01-11T10:30:13;99604.75;;;11.12;26.77
80149;BME280;69473;42.426;26.644;2024-01-11T10:32:43;99596.84;;;16.68;22.31
80149;BME280;69473;42.426;26.644;2024-01-11T10:35:09;99580.53;;;20.63;17.89
80149;BME280;69473;42.426;26.644;2024-01-11T10:37:36;99579.09;;;21.03;17.51
80149;BME280;69473;42.426;26.644;2024-01-11T10:40:06;99571.53;;;23.89;15.72
80149;BME280;69473;42.426;26.644;2024-01-11T10:42:49;99561.66;;;24.63;14.37
80149;BME280;69473;42.426;26.644;2024-01-11T10:45:17;99564.78;;;24.72;14.26
80149;BME280;69473;42.426;26.644;2024-01-11T10:48:01;99553.00;;;25.91;13.15
80149;BME280;69473;42.426;26.644;2024-01-11T10:50:30;99556.41;;;26.09;12.91
80149;BME280;69473;42.426;26.644;2024-01-11T10:55:42;99538.31;;;26.90;12.45
80149;BME280;69473;42.426;26.644;2024-01-11T10:58:09;99530.16;;;27.36;12.06
80149;BME280;69473;42.426;26.644;2024-01-11T11:00:36;99525.84;;;27.75;11.35
80149;BME280;69473;42.426;26.644;2024-01-11T11:03:05;99532.16;;;26.45;11.63
80149;BME280;69473;42.426;26.644;2024-01-11T11:05:34;99519.28;;;26.54;11.98
80149;BME280;69473;42.426;26.644;2024-01-11T11:08:01;99532.00;;;26.63;12.19
80149;BME280;69473;42.426;26.644;2024-01-11T11:10:28;99521.63;;;27.17;11.42
80149;BME280;69473;42.426;26.644;2024-01-11T11:12:55;99514.94;;;26.67;12.21
80149;BME280;69473;42.426;26.644;2024-01-11T11:15:27;99502.16;;;26.43;12.33
80149;BME280;69473;42.426;26.644;2024-01-11T11:17:54;99504.38;;;25.91;12.54
80149;BME280;69473;42.426;26.644;2024-01-11T11:20:20;99499.09;;;27.64;12.63
80149;BME280;69473;42.426;26.644;2024-01-11T11:23:04;99489.78;;;28.11;11.34
80149;BME280;69473;42.426;26.644;2024-01-11T11:25:30;99488.13;;;28.36;11.40
80149;BME280;69473;42.426;26.644;2024-01-11T11:28:00;99490.66;;;25.67;12.31
80149;BME280;69473;42.426;26.644;2024-01-11T11:30:30;99487.25;;;27.14;12.88
80149;BME280;69473;42.426;26.644;2024-01-11T11:32:56;99483.13;;;26.65;12.23
80149;BME280;69473;42.426;26.644;2024-01-11T11:35:24;99481.28;;;28.31;12.04
80149;BME280;69473;42.426;26.644;2024-01-11T11:37:55;99473.63;;;28.91;11.44
80149;BME280;69473;42.426;26.644;2024-01-11T11:40:40;99463.09;;;28.76;11.18
80149;BME280;69473;42.426;26.644;2024-01-11T11:43:08;99466.09;;;28.59;11.22
80149;BME280;69473;42.426;26.644;2024-01-11T11:45:34;99465.47;;;27.07;11.88
80149;BME280;69473;42.426;26.644;2024-01-11T11:47:59;99456.59;;;26.35;11.69
80149;BME280;69473;42.426;26.644;2024-01-11T11:50:26;99446.53;;;27.95;11.10
80149;BME280;69473;42.426;26.644;2024-01-11T11:52:55;99439.25;;;27.15;10.69
80149;BME280;69473;42.426;26.644;2024-01-11T11:55:24;99437.97;;;27.90;11.10
80149;BME280;69473;42.426;26.644;2024-01-11T11:57:53;99425.50;;;27.63;10.71
80149;BME280;69473;42.426;26.644;2024-01-11T12:00:23;99422.59;;;25.20;11.43
80149;BME280;69473;42.426;26.644;2024-01-11T12:02:49;99415.75;;;25.16;12.04
80149;BME280;69473;42.426;26.644;2024-01-11T12:05:16;99423.94;;;26.19;12.33
80149;BME280;69473;42.426;26.644;2024-01-11T12:07:44;99408.94;;;27.18;11.34
80149;BME280;69473;42.426;26.644;2024-01-11T12:10:10;99401.16;;;28.60;10.68
80149;BME280;69473;42.426;26.644;2024-01-11T12:12:36;99407.97;;;28.39;11.61
80149;BME280;69473;42.426;26.644;2024-01-11T12:15:03;99398.69;;;29.19;11.33
80149;BME280;69473;42.426;26.644;2024-01-11T12:17:29;99404.63;;;26.74;11.01
80149;BME280;69473;42.426;26.644;2024-01-11T12:19:55;99390.31;;;27.04;11.70
80149;BME280;69473;42.426;26.644;2024-01-11T12:22:20;99384.25;;;27.16;11.86
80149;BME280;69473;42.426;26.644;2024-01-11T12:24:47;99388.44;;;27.06;11.51
80149;BME280;69473;42.426;26.644;2024-01-11T12:27:12;99384.25;;;24.62;13.26
80149;BME280;69473;42.426;26.644;2024-01-11T12:29:39;99395.13;;;18.24;17.91
80149;BME280;69473;42.426;26.644;2024-01-11T12:32:05;99401.81;;;14.30;23.42
80149;BME280;69473;42.426;26.644;2024-01-11T12:34:32;99402.44;;;11.98;25.27
80149;BME280;69473;42.426;26.644;2024-01-11T12:36:58;99402.44;;;10.97;27.07
80149;BME280;69473;42.426;26.644;2024-01-11T12:39:27;99398.50;;;9.97;28.89
80149;BME280;69473;42.426;26.644;2024-01-11T12:41:54;99397.97;;;9.23;32.10
80149;BME280;69473;42.426;26.644;2024-01-11T12:44:23;99386.69;;;9.13;32.02
80149;BME280;69473;42.426;26.644;2024-01-11T12:46:52;99388.22;;;8.94;33.06
80149;BME280;69473;42.426;26.644;2024-01-11T12:49:18;99388.34;;;8.32;34.16
80149;BME280;69473;42.426;26.644;2024-01-11T12:51:43;99389.50;;;7.90;35.35